Terminal Aerodrome Forecast
Issued by NWS Greer, SC

Home | Current Version | Previous Version | Text Only | Print | Product List | Glossary On
Versions: 1 2 3 4 5 6 7 8 9 10 11 12 13 14 15 16 17
000
FTUS42 KGSP 291126
TAFGSP
TAF
KGSP 291126Z 2912/3012 00000KT P6SM SCT250
     FM291400 05004KT P6SM SCT250
     FM291800 10006KT P6SM BKN090
     FM300300 00000KT P6SM BKN110=

USA.gov is the U.S. government's official web portal to all federal, state and local government web resources and services.